KLFI/LFI METAR and TAF weather

Enter ICAO airport designator
Station Type Date Time Source
KLFI METAR 2022/12/10 00:55 UTC NOAA

KLFI 100055Z AUTO 31004KT 10SM OVC028 06/04 A3025 RMK AO2 OVC V BKN SLP250 T00620037


Station Type Date Time Source
KLFI Decoded METAR 2022/12/10 00:55 UTC NOAA

Langley Air Force Base, VA, United States (KLFI) 37-05N 076-21W 6M
Dec 09, 2022 - 07:55 PM EST / 2022.12.10 0055 UTC
Wind: from the NW (310 degrees) at 5 MPH (4 KT):0
Visibility: 10 mile(s):0
Sky conditions: overcast
Temperature: 43.2 F (6.2 C)
Dew Point: 38.7 F (3.7 C)
Relative Humidity: 83%
Pressure (altimeter): 30.25 in. Hg (1024 hPa)
ob: KLFI 100055Z AUTO 31004KT 10SM OVC028 06/04 A3025 RMK AO2 OVC V BKN SLP250 T00620037
cycle: 1

Station Type Date Time Source
KLFI TAF 2022/12/09 18:58 UTC NOAA

TAF KLFI 091800Z 0918/1024 35012KT 9999 FEW025 SCT140 QNH3018INS
BECMG 1017/1018 02009KT 9999 BKN015 BKN120 QNH3026INS TX09/0918Z TN04/1011Z

Example: see airport list